Time;durP1;ratioP1;P1;durP2;ratioP2;P2;SDS_P1;SDS_P2;PMS_P1;PMS_P2;Temp;Humidity;BMP_temperature;BMP_pressure;BME280_temperature;BME280_humidity;BME280_pressure;Samples;Min_cycle;Max_cycle;Signal;HPM_P1;HPM_P2
2023/01/16 00:00:51;;;;;;;9.32;3.85;;;6.40;99.90;;;;;;5055040;28;20534;-73
2023/01/16 00:03:16;;;;;;;9.90;3.70;;;6.40;99.90;;;;;;5054961;28;20024;-72
2023/01/16 00:05:42;;;;;;;10.93;4.05;;;6.50;99.90;;;;;;5054126;28;20047;-72
2023/01/16 00:08:08;;;;;;;8.75;3.60;;;6.50;99.90;;;;;;5054815;28;20021;-72
2023/01/16 00:10:34;;;;;;;13.68;4.25;;;6.50;99.90;;;;;;5054658;28;20445;-72
2023/01/16 00:12:59;;;;;;;9.40;3.92;;;6.50;99.90;;;;;;5054589;28;20065;-73
2023/01/16 00:15:25;;;;;;;11.35;4.13;;;6.50;99.90;;;;;;5053998;28;20025;-73
2023/01/16 00:17:50;;;;;;;9.45;4.22;;;6.50;99.90;;;;;;5054957;28;20013;-73
2023/01/16 00:20:16;;;;;;;8.98;4.15;;;6.50;99.90;;;;;;5054559;28;20028;-72
2023/01/16 00:22:42;;;;;;;13.65;5.40;;;6.50;99.90;;;;;;5054435;28;20048;-74
2023/01/16 00:25:08;;;;;;;12.73;4.85;;;6.50;99.90;;;;;;5054325;28;20025;-74
2023/01/16 00:27:33;;;;;;;12.10;4.95;;;6.50;99.90;;;;;;5053560;28;20033;-73
2023/01/16 00:29:59;;;;;;;10.57;4.32;;;6.50;99.90;;;;;;5054462;28;20059;-72
2023/01/16 00:32:24;;;;;;;10.85;5.07;;;6.50;99.90;;;;;;5054328;28;20029;-73
2023/01/16 00:34:50;;;;;;;15.63;6.18;;;6.60;99.90;;;;;;5054233;28;20029;-72
2023/01/16 00:37:15;;;;;;;19.98;6.38;;;6.60;99.90;;;;;;5053790;28;20083;-72
2023/01/16 00:39:41;;;;;;;14.93;6.25;;;6.60;99.90;;;;;;5054425;28;20052;-72
2023/01/16 00:42:07;;;;;;;15.90;6.47;;;6.60;99.90;;;;;;5054151;28;20394;-72
2023/01/16 00:44:33;;;;;;;16.15;6.72;;;6.60;99.90;;;;;;5054148;28;20037;-72
2023/01/16 00:46:58;;;;;;;16.85;7.40;;;6.60;99.90;;;;;;5052466;28;20036;-72
2023/01/16 00:49:24;;;;;;;15.88;7.10;;;6.60;99.90;;;;;;5054131;28;20531;-72
2023/01/16 00:51:49;;;;;;;17.60;6.85;;;6.70;99.90;;;;;;5054082;28;20099;-72
2023/01/16 00:54:15;;;;;;;22.40;7.43;;;6.70;99.90;;;;;;5053927;28;20070;-72
2023/01/16 00:56:40;;;;;;;14.30;6.93;;;6.60;99.90;;;;;;5053502;28;20036;-72
2023/01/16 00:59:06;;;;;;;18.90;6.95;;;6.70;99.90;;;;;;5054067;28;20028;-71
2023/01/16 01:01:31;;;;;;;21.13;7.13;;;6.60;99.90;;;;;;5059102;28;20024;-72
2023/01/16 01:04:00;;;;;;;19.42;6.63;;;6.70;99.90;;;;;;5073550;28;20028;-73
2023/01/16 01:06:25;;;;;;;14.30;6.78;;;6.60;99.90;;;;;;5072048;28;20020;-72
2023/01/16 01:08:51;;;;;;;12.73;6.28;;;6.60;99.90;;;;;;5073867;28;20162;-74
2023/01/16 01:11:16;;;;;;;15.93;6.10;;;6.60;99.90;;;;;;5074083;28;20428;-73
2023/01/16 01:13:43;;;;;;;16.65;6.05;;;6.60;99.90;;;;;;5073628;28;20029;-73
2023/01/16 01:16:10;;;;;;;10.38;5.15;;;6.60;99.90;;;;;;5072986;28;20039;-73
2023/01/16 01:18:36;;;;;;;13.85;4.65;;;6.60;99.90;;;;;;5073703;28;20020;-73
2023/01/16 01:21:02;;;;;;;12.45;4.63;;;6.60;99.90;;;;;;5073702;28;20031;-72
2023/01/16 01:23:27;;;;;;;15.32;4.82;;;6.60;99.90;;;;;;5073446;28;20020;-71
2023/01/16 01:25:53;;;;;;;14.40;4.63;;;6.60;99.90;;;;;;5072791;28;20052;-71
2023/01/16 01:28:19;;;;;;;15.43;3.63;;;6.60;98.80;;;;;;5073543;28;20021;-72
2023/01/16 01:30:45;;;;;;;15.30;3.70;;;6.60;97.90;;;;;;5073095;28;20028;-72
2023/01/16 01:33:11;;;;;;;14.23;3.67;;;6.60;97.80;;;;;;5073218;28;20460;-72
2023/01/16 01:35:36;;;;;;;14.93;3.05;;;6.60;96.60;;;;;;5072685;28;20023;-72
2023/01/16 01:38:02;;;;;;;14.48;3.33;;;6.60;96.60;;;;;;5073404;28;20480;-73
2023/01/16 01:40:28;;;;;;;11.82;3.00;;;6.60;95.60;;;;;;5073104;28;20029;-73
2023/01/16 01:42:54;;;;;;;12.27;3.05;;;6.60;95.00;;;;;;5072979;28;20040;-73
2023/01/16 01:45:19;;;;;;;11.27;2.70;;;6.60;94.60;;;;;;5072636;28;20040;-76
2023/01/16 01:47:51;;;;;;;11.65;2.65;;;6.60;95.30;;;;;;5072482;28;20032;-73
2023/01/16 01:50:26;;;;;;;10.50;2.70;;;6.70;95.00;;;;;;5073287;28;20081;-73
2023/01/16 01:52:53;;;;;;;10.60;2.95;;;6.60;95.20;;;;;;5054795;28;20561;-73
2023/01/16 01:55:21;;;;;;;12.93;2.95;;;6.60;96.10;;;;;;5072396;28;20033;-73
2023/01/16 01:57:54;;;;;;;13.75;3.00;;;6.50;97.20;;;;;;5072530;28;20013;-73
2023/01/16 02:00:22;;;;;;;15.63;3.13;;;6.60;96.70;;;;;;5072643;28;20017;-73
2023/01/16 02:02:55;;;;;;;11.57;2.97;;;6.60;96.80;;;;;;5073089;28;20033;-73
2023/01/16 02:05:27;;;;;;;18.70;3.15;;;6.60;97.00;;;;;;5072109;28;20024;-72
2023/01/16 02:07:53;;;;;;;11.73;2.80;;;6.60;97.80;;;;;;5072573;28;20036;-72
2023/01/16 02:10:37;;;;;;;11.00;3.22;;;6.60;97.90;;;;;;5072485;28;20539;-72
2023/01/16 02:13:03;;;;;;;10.93;3.47;;;6.60;97.50;;;;;;5072639;28;20098;-72
2023/01/16 02:15:29;;;;;;;9.75;2.65;;;6.60;97.90;;;;;;5072234;28;20478;-72
2023/01/16 02:21:02;;;;;;;12.70;3.42;;;6.60;98.60;;;;;;5072584;28;20095;-72
2023/01/16 02:24:20;;;;;;;13.77;3.60;;;6.60;99.40;;;;;;5072499;28;20060;-72
2023/01/16 02:27:04;;;;;;;11.98;3.47;;;6.60;98.50;;;;;;5072021;28;20173;-72
2023/01/16 02:29:43;;;;;;;11.23;3.10;;;6.50;99.50;;;;;;5072187;28;20036;-72
2023/01/16 02:32:30;;;;;;;12.48;3.67;;;6.50;99.80;;;;;;5071868;28;20474;-72
2023/01/16 02:35:21;;;;;;;12.32;3.85;;;6.50;99.90;;;;;;5071931;28;20024;-73
2023/01/16 02:38:10;;;;;;;12.23;2.78;;;6.60;98.50;;;;;;5071916;28;20489;-73
2023/01/16 02:40:48;;;;;;;10.38;2.63;;;6.60;99.60;;;;;;5071977;28;20016;-72
2023/01/16 02:43:35;;;;;;;12.05;2.88;;;6.60;99.90;;;;;;5071955;28;20021;-71
2023/01/16 02:46:08;;;;;;;10.93;2.75;;;6.60;99.40;;;;;;5071219;28;20473;-72
2023/01/16 02:48:47;;;;;;;11.13;2.70;;;6.50;99.60;;;;;;5071837;28;20036;-72
2023/01/16 02:51:35;;;;;;;14.07;2.97;;;6.50;99.90;;;;;;5071793;28;20025;-72
2023/01/16 02:54:10;;;;;;;13.07;2.72;;;6.40;99.90;;;;;;5054055;28;20055;-73
2023/01/16 02:56:50;;;;;;;12.05;2.95;;;6.50;99.90;;;;;;5071086;28;20048;-72
2023/01/16 02:59:17;;;;;;;10.48;2.35;;;6.50;99.90;;;;;;5071915;28;20029;-72
2023/01/16 03:01:46;;;;;;;11.60;2.33;;;6.40;99.90;;;;;;5071562;28;20020;-72
2023/01/16 03:04:49;;;;;;;12.80;2.38;;;6.30;99.90;;;;;;5071728;28;20059;-72
2023/01/16 03:07:52;;;;;;;9.32;2.50;;;6.30;99.90;;;;;;5071154;28;20112;-73
2023/01/16 03:10:38;;;;;;;14.10;2.60;;;6.20;99.90;;;;;;5071394;28;20032;-72
2023/01/16 03:13:18;;;;;;;16.25;2.90;;;6.30;99.90;;;;;;5071670;28;20040;-72
2023/01/16 03:15:58;;;;;;;13.55;2.67;;;6.20;99.90;;;;;;5070774;28;20032;-75
2023/01/16 03:18:49;;;;;;;10.75;2.72;;;6.20;99.90;;;;;;5071656;28;20094;-75
2023/01/16 03:21:33;;;;;;;11.38;2.35;;;6.10;99.90;;;;;;5068951;28;20032;-73
2023/01/16 03:24:07;;;;;;;7.95;2.35;;;6.20;99.90;;;;;;5071176;28;20051;-73
2023/01/16 03:26:47;;;;;;;8.32;2.45;;;6.20;99.90;;;;;;5070696;28;20100;-73
2023/01/16 03:29:36;;;;;;;15.00;3.28;;;6.20;99.90;;;;;;5071277;28;20111;-73
2023/01/16 03:32:13;;;;;;;6.05;1.88;;;6.20;99.90;;;;;;5060156;28;20037;-73
2023/01/16 03:34:45;;;;;;;14.73;2.03;;;6.10;99.90;;;;;;5074287;28;20102;-72
2023/01/16 03:37:19;;;;;;;10.60;2.35;;;6.20;99.90;;;;;;5072180;28;20020;-72
2023/01/16 03:39:53;;;;;;;8.02;1.92;;;6.10;99.90;;;;;;5072338;28;20495;-72
2023/01/16 03:42:26;;;;;;;8.45;2.35;;;6.20;99.90;;;;;;5072226;28;20110;-72
2023/01/16 03:44:59;;;;;;;9.15;2.33;;;6.10;99.90;;;;;;5071018;28;20539;-73
2023/01/16 03:47:41;;;;;;;11.82;2.80;;;6.10;99.90;;;;;;5070827;28;20041;-73
2023/01/16 03:50:11;;;;;;;9.20;2.30;;;6.10;99.90;;;;;;5071318;28;20447;-73
2023/01/16 03:52:44;;;;;;;9.20;2.60;;;6.10;99.90;;;;;;5071021;28;20033;-73
2023/01/16 03:55:36;;;;;;;9.23;2.20;;;6.10;99.90;;;;;;5070841;28;20039;-75
2023/01/16 03:58:09;;;;;;;12.00;2.53;;;6.20;99.90;;;;;;5069749;28;20052;-75
2023/01/16 04:00:46;;;;;;;16.30;2.40;;;6.20;99.90;;;;;;5075041;28;20386;-73
2023/01/16 04:03:19;;;;;;;10.80;2.20;;;6.20;99.90;;;;;;5071486;28;20023;-73
2023/01/16 04:06:00;;;;;;;14.13;2.90;;;6.20;99.90;;;;;;5070528;28;20432;-72
2023/01/16 04:08:31;;;;;;;15.48;2.30;;;6.20;99.90;;;;;;5071363;28;20028;-71
2023/01/16 04:10:57;;;;;;;11.52;2.25;;;6.10;99.90;;;;;;5071493;28;20416;-73
2023/01/16 04:13:29;;;;;;;14.38;2.30;;;6.20;99.90;;;;;;5071169;28;20020;-72
2023/01/16 04:15:57;;;;;;;12.35;2.40;;;6.20;99.90;;;;;;5071330;28;20028;-72
2023/01/16 04:18:28;;;;;;;6.47;2.50;;;6.10;99.90;;;;;;5071529;28;20027;-73
2023/01/16 04:20:54;;;;;;;13.15;2.75;;;6.10;99.90;;;;;;5071600;28;20032;-73
2023/01/16 04:23:20;;;;;;;14.23;2.78;;;6.20;99.90;;;;;;5073055;28;20017;-72
2023/01/16 04:25:45;;;;;;;12.75;2.28;;;6.20;99.90;;;;;;5074101;28;20033;-73
2023/01/16 04:28:11;;;;;;;11.27;2.40;;;6.30;99.90;;;;;;5075196;28;20126;-72
2023/01/16 04:30:36;;;;;;;15.57;2.55;;;6.30;99.90;;;;;;5074586;28;20469;-73
2023/01/16 04:33:05;;;;;;;14.05;2.50;;;6.30;99.90;;;;;;5074677;28;20039;-79
2023/01/16 04:35:31;;;;;;;13.77;2.65;;;6.30;99.80;;;;;;5074211;28;20036;-75
2023/01/16 04:37:57;;;;;;;9.55;2.22;;;6.30;99.90;;;;;;5075082;28;20035;-71
2023/01/16 04:40:23;;;;;;;10.55;1.90;;;6.30;99.30;;;;;;5074480;28;20020;-72
2023/01/16 04:42:49;;;;;;;11.00;2.15;;;6.30;99.50;;;;;;5074307;28;20043;-73
2023/01/16 04:45:15;;;;;;;13.98;2.20;;;6.30;99.90;;;;;;5073986;28;20029;-75
2023/01/16 04:47:44;;;;;;;10.60;2.20;;;6.30;99.70;;;;;;5073717;28;20028;-75
2023/01/16 04:50:10;;;;;;;8.85;2.30;;;6.30;99.50;;;;;;5073985;28;20341;-74
2023/01/16 04:52:35;;;;;;;8.85;2.08;;;6.40;98.90;;;;;;5073587;28;20024;-75
2023/01/16 04:55:01;;;;;;;13.57;2.33;;;6.30;98.80;;;;;;5073940;28;20017;-72
2023/01/16 04:57:26;;;;;;;9.63;1.52;;;6.30;99.50;;;;;;5073287;28;20393;-72
2023/01/16 04:59:52;;;;;;;13.02;2.35;;;6.40;98.70;;;;;;5073812;28;20474;-73
2023/01/16 05:02:17;;;;;;;14.43;2.38;;;6.40;98.50;;;;;;5074040;28;20043;-72
2023/01/16 05:04:43;;;;;;;9.35;1.90;;;6.40;98.60;;;;;;5074013;28;20390;-72
2023/01/16 05:07:08;;;;;;;17.48;3.03;;;6.40;97.70;;;;;;5074689;28;20035;-72
2023/01/16 05:09:34;;;;;;;17.02;2.13;;;6.40;98.00;;;;;;5073647;28;20037;-72
2023/01/16 05:11:59;;;;;;;13.38;2.38;;;6.40;97.30;;;;;;5073590;28;20436;-74
2023/01/16 05:14:25;;;;;;;10.35;1.85;;;6.40;97.40;;;;;;5073532;28;20074;-74
2023/01/16 05:16:50;;;;;;;15.15;2.00;;;6.40;97.40;;;;;;5073043;28;20036;-71
2023/01/16 05:19:16;;;;;;;10.35;2.28;;;6.40;96.80;;;;;;5073480;28;20020;-72
2023/01/16 05:21:41;;;;;;;7.95;1.92;;;6.30;97.90;;;;;;5073536;28;20020;-72
2023/01/16 05:24:07;;;;;;;9.02;1.98;;;6.30;98.20;;;;;;5074124;28;20024;-73
2023/01/16 05:26:33;;;;;;;10.25;1.95;;;6.40;97.10;;;;;;5073074;28;20474;-72
2023/01/16 05:28:58;;;;;;;12.43;1.70;;;6.50;95.10;;;;;;5073283;28;20020;-72
2023/01/16 05:31:24;;;;;;;8.55;1.95;;;6.40;96.80;;;;;;5072975;28;20025;-72
2023/01/16 05:33:49;;;;;;;8.90;1.90;;;6.40;96.60;;;;;;5072564;28;20039;-72
2023/01/16 05:36:15;;;;;;;11.93;1.90;;;6.40;96.00;;;;;;5072566;28;20027;-73
2023/01/16 05:38:40;;;;;;;7.22;1.58;;;6.40;96.70;;;;;;5073357;28;20031;-72
2023/01/16 05:41:06;;;;;;;6.63;1.63;;;6.40;97.20;;;;;;5073362;28;20470;-74
2023/01/16 05:43:31;;;;;;;12.70;2.70;;;6.40;96.50;;;;;;5073653;28;20378;-74
2023/01/16 05:45:57;;;;;;;14.35;2.25;;;6.50;95.80;;;;;;5072563;28;20393;-75
2023/01/16 05:48:23;;;;;;;9.30;1.95;;;6.40;95.90;;;;;;5072886;28;20021;-74
2023/01/16 05:50:49;;;;;;;9.20;2.00;;;6.40;96.60;;;;;;5072497;28;20031;-75
2023/01/16 05:53:15;;;;;;;11.55;2.25;;;6.40;96.80;;;;;;5072744;28;20024;-76
2023/01/16 05:55:43;;;;;;;11.85;2.33;;;6.40;97.30;;;;;;5072420;28;20405;-73
2023/01/16 05:58:10;;;;;;;10.00;2.00;;;6.40;97.00;;;;;;5072626;28;20036;-74
2023/01/16 06:00:36;;;;;;;12.02;1.92;;;6.40;96.80;;;;;;5072429;28;20572;-71
2023/01/16 06:03:01;;;;;;;7.38;1.75;;;6.40;96.40;;;;;;5072401;28;20116;-73
2023/01/16 06:05:27;;;;;;;12.45;2.20;;;6.40;94.90;;;;;;5071743;28;20111;-73
2023/01/16 06:07:58;;;;;;;9.43;2.05;;;6.40;96.40;;;;;;5072120;28;20075;-74
2023/01/16 06:10:25;;;;;;;8.68;2.15;;;6.40;97.60;;;;;;5072333;28;20029;-73
2023/01/16 06:12:51;;;;;;;9.80;1.83;;;6.40;97.00;;;;;;5072475;28;20033;-73
2023/01/16 06:15:17;;;;;;;9.07;1.90;;;6.30;97.10;;;;;;5072609;28;20058;-74
2023/01/16 06:17:42;;;;;;;9.15;1.75;;;6.40;97.60;;;;;;5072633;28;20061;-73
2023/01/16 06:20:09;;;;;;;12.00;2.45;;;6.40;97.00;;;;;;5073244;28;20125;-74
2023/01/16 06:22:35;;;;;;;11.20;1.90;;;6.40;97.50;;;;;;5071400;28;20470;-74
2023/01/16 06:25:00;;;;;;;13.07;2.60;;;6.30;96.30;;;;;;5072507;28;20032;-76
2023/01/16 06:27:26;;;;;;;9.75;1.98;;;6.40;96.50;;;;;;5072185;28;20039;-73
2023/01/16 06:29:51;;;;;;;13.82;2.80;;;6.30;97.40;;;;;;5072639;28;20096;-74
2023/01/16 06:32:17;;;;;;;6.95;2.10;;;6.30;96.90;;;;;;5067705;28;20036;-74
2023/01/16 06:34:43;;;;;;;13.65;2.15;;;6.20;97.80;;;;;;5071586;28;20021;-75
2023/01/16 06:37:09;;;;;;;7.13;1.60;;;6.30;98.30;;;;;;5070883;28;20067;-73
2023/01/16 06:39:34;;;;;;;9.30;2.38;;;6.30;98.00;;;;;;5071676;28;20052;-73
2023/01/16 06:42:03;;;;;;;7.40;1.42;;;6.30;97.50;;;;;;5071207;28;20036;-75
2023/01/16 06:44:28;;;;;;;13.00;2.20;;;6.30;97.50;;;;;;5071130;28;20029;-76
2023/01/16 06:46:54;;;;;;;8.38;2.05;;;6.20;97.70;;;;;;5071649;28;20051;-78
2023/01/16 06:49:20;;;;;;;8.57;1.73;;;6.30;96.80;;;;;;5072981;28;20020;-78
2023/01/16 06:51:45;;;;;;;6.47;1.90;;;6.30;97.20;;;;;;5068662;28;20025;-78
2023/01/16 06:54:11;;;;;;;7.35;2.05;;;6.30;96.90;;;;;;5072327;28;20036;-75
2023/01/16 06:56:37;;;;;;;10.20;2.22;;;6.30;96.20;;;;;;5072072;28;20093;-73
2023/01/16 06:59:03;;;;;;;10.15;1.85;;;6.20;97.00;;;;;;5072661;28;20036;-73
2023/01/16 07:01:29;;;;;;;7.45;1.88;;;6.20;97.60;;;;;;5072080;28;20031;-76
2023/01/16 07:03:54;;;;;;;7.65;1.92;;;6.20;97.40;;;;;;5071495;28;20025;-73
2023/01/16 07:06:20;;;;;;;10.70;2.13;;;6.20;97.80;;;;;;5070744;28;20112;-72
2023/01/16 07:08:48;;;;;;;13.52;2.67;;;6.20;97.40;;;;;;5071444;28;20043;-75
2023/01/16 07:11:14;;;;;;;10.63;2.67;;;6.20;97.00;;;;;;5077015;28;20036;-73
2023/01/16 07:13:39;;;;;;;11.40;2.50;;;6.30;97.80;;;;;;5071659;28;20458;-72
2023/01/16 07:24:22;;;;;;;8.20;2.20;;;6.20;98.20;;;;;;5071233;28;20125;-73
2023/01/16 07:26:52;;;;;;;8.90;1.67;;;6.20;97.80;;;;;;5070863;28;20125;-73
2023/01/16 07:29:18;;;;;;;7.65;1.80;;;6.30;96.90;;;;;;5071592;28;20032;-71
2023/01/16 07:31:44;;;;;;;7.38;2.00;;;6.30;97.60;;;;;;5071300;28;20132;-72
2023/01/16 07:34:09;;;;;;;13.20;1.92;;;6.20;97.80;;;;;;5070738;28;20025;-74
2023/01/16 07:36:35;;;;;;;11.80;1.75;;;6.20;97.90;;;;;;5071135;28;20039;-77
2023/01/16 07:39:00;;;;;;;9.45;1.70;;;6.20;98.00;;;;;;5072040;28;20021;-77
2023/01/16 07:41:26;;;;;;;14.18;1.88;;;6.20;97.20;;;;;;5071436;28;20028;-77
2023/01/16 07:43:51;;;;;;;9.15;2.13;;;6.20;97.40;;;;;;5072291;28;20031;-77
2023/01/16 07:46:16;;;;;;;10.07;2.40;;;6.30;96.00;;;;;;5071966;28;20039;-74
2023/01/16 07:48:42;;;;;;;11.30;2.10;;;6.40;96.40;;;;;;5076543;28;20037;-79
2023/01/16 07:51:07;;;;;;;7.15;2.00;;;6.30;97.10;;;;;;5076636;28;20085;-80
2023/01/16 07:53:33;;;;;;;9.73;2.53;;;6.30;99.00;;;;;;5057010;28;20082;-78
2023/01/16 07:56:01;;;;;;;16.50;3.25;;;6.40;99.70;;;;;;5077411;28;20036;-71
2023/01/16 07:58:27;;;;;;;7.82;2.10;;;6.50;97.10;;;;;;5075543;28;20055;-73
2023/01/16 08:00:54;;;;;;;6.97;2.25;;;6.50;95.70;;;;;;5075937;28;20074;-74
2023/01/16 08:03:20;;;;;;;10.57;1.80;;;6.60;96.00;;;;;;5074971;28;20493;-74
2023/01/16 08:05:45;;;;;;;13.13;2.10;;;6.50;93.80;;;;;;5074454;28;20029;-76
2023/01/16 08:08:13;;;;;;;9.60;2.20;;;6.50;94.90;;;;;;5075530;28;20032;-75
2023/01/16 08:10:39;;;;;;;13.70;2.35;;;6.50;95.60;;;;;;5074784;28;20042;-73
2023/01/16 08:13:05;;;;;;;8.85;2.28;;;6.40;95.40;;;;;;5074344;28;20029;-72
2023/01/16 08:15:30;;;;;;;14.57;2.65;;;6.40;95.60;;;;;;5073509;28;20051;-72
2023/01/16 08:17:56;;;;;;;8.30;2.10;;;6.40;95.80;;;;;;5074344;28;20025;-72
2023/01/16 08:20:22;;;;;;;10.52;2.28;;;6.30;95.90;;;;;;5071639;28;20024;-73
2023/01/16 08:22:49;;;;;;;10.52;2.42;;;6.30;96.80;;;;;;5074147;28;20484;-73
2023/01/16 08:25:17;;;;;;;14.10;2.45;;;6.30;96.70;;;;;;5073829;28;20032;-73
2023/01/16 08:27:42;;;;;;;8.13;2.28;;;6.40;96.30;;;;;;5073364;28;20441;-74
2023/01/16 08:30:09;;;;;;;7.90;1.90;;;6.40;95.90;;;;;;5073700;28;20103;-73
2023/01/16 08:32:35;;;;;;;9.30;1.92;;;6.50;96.40;;;;;;5073909;28;20078;-72
2023/01/16 08:35:03;;;;;;;9.05;1.75;;;6.60;94.60;;;;;;5056511;28;20028;-74
2023/01/16 08:37:29;;;;;;;8.95;2.08;;;6.70;93.50;;;;;;5074058;28;20377;-73
2023/01/16 08:39:55;;;;;;;10.63;2.00;;;6.80;93.50;;;;;;5074947;28;20021;-75
2023/01/16 08:53:17;;;;;;;6.63;1.73;;;7.10;87.70;;;;;;5074270;28;20505;-73
2023/01/16 08:55:42;;;;;;;14.93;3.95;;;7.10;87.70;;;;;;5074838;28;20283;-73
2023/01/16 08:58:08;;;;;;;8.60;2.35;;;7.30;80.60;;;;;;5074457;28;20031;-73
2023/01/16 09:00:34;;;;;;;7.22;1.83;;;7.50;77.70;;;;;;5074861;28;20108;-72
2023/01/16 09:03:01;;;;;;;15.32;3.25;;;8.00;56.60;;;;;;5074589;28;20028;-74
2023/01/16 09:05:27;;;;;;;8.98;1.80;;;8.20;48.50;;;;;;5072650;28;20032;-73
2023/01/16 09:07:53;;;;;;;12.55;1.70;;;8.70;27.50;;;;;;5072685;28;20031;-71
2023/01/16 09:10:18;;;;;;;11.30;2.38;;;9.10;14.90;;;;;;5073235;28;20107;-72
2023/01/16 09:15:28;;;;;;;8.23;1.90;;;10.20;1.00;;;;;;5072281;28;20082;-72
2023/01/16 09:17:54;;;;;;;7.30;1.80;;;10.40;1.00;;;;;;5073074;28;20024;-72
2023/01/16 09:20:20;;;;;;;8.60;1.65;;;10.20;1.00;;;;;;5074093;28;20399;-73
2023/01/16 09:22:45;;;;;;;6.80;1.63;;;9.90;1.00;;;;;;5073911;28;20034;-75
2023/01/16 09:25:11;;;;;;;8.18;2.13;;;9.50;1.00;;;;;;5076698;28;20065;-75
2023/01/16 09:27:37;;;;;;;6.13;1.98;;;9.20;1.00;;;;;;5074712;28;20055;-75
2023/01/16 09:30:03;;;;;;;8.48;2.60;;;9.00;1.00;;;;;;5074345;28;20025;-76
2023/01/16 09:32:29;;;;;;;8.38;1.77;;;8.70;13.90;;;;;;5072850;28;20478;-75
2023/01/16 09:34:54;;;;;;;10.75;2.65;;;8.40;20.90;;;;;;5072828;28;20082;-73
2023/01/16 09:37:20;;;;;;;7.95;1.88;;;8.20;35.40;;;;;;5074608;28;20078;-75
2023/01/16 09:39:45;;;;;;;6.50;1.60;;;8.20;32.60;;;;;;5074142;28;20397;-76
2023/01/16 09:45:21;;;;;;;14.43;2.28;;;8.10;33.80;;;;;;5073147;28;20051;-74
2023/01/16 09:47:50;;;;;;;8.48;1.85;;;8.00;43.10;;;;;;5073724;28;20477;-75
2023/01/16 09:50:26;;;;;;;7.22;2.05;;;7.80;50.40;;;;;;5074057;28;20588;-76
2023/01/16 09:58:35;;;;;;;8.95;1.50;;;7.50;63.20;;;;;;5072766;28;20039;-72
2023/01/16 10:01:03;;;;;;;10.98;1.60;;;7.40;66.40;;;;;;5072459;28;20024;-73
2023/01/16 10:03:28;;;;;;;7.72;2.03;;;7.20;71.50;;;;;;5072344;28;20584;-75
2023/01/16 10:06:22;;;;;;;15.15;3.65;;;7.00;78.40;;;;;;5071976;28;20032;-73
2023/01/16 10:08:48;;;;;;;7.85;2.22;;;6.90;83.10;;;;;;5072604;28;20477;-74
2023/01/16 10:11:37;;;;;;;12.50;2.50;;;6.90;82.30;;;;;;5072118;28;20036;-75
2023/01/16 10:14:14;;;;;;;5.22;1.60;;;6.90;85.50;;;;;;5072403;28;20459;-73
2023/01/16 10:17:12;;;;;;;8.55;1.88;;;7.00;83.90;;;;;;5071716;28;20466;-73
2023/01/16 10:19:56;;;;;;;13.85;3.80;;;7.00;86.40;;;;;;5072187;28;20027;-74
2023/01/16 10:22:52;;;;;;;6.73;2.10;;;7.10;85.50;;;;;;5072223;28;20070;-74
2023/01/16 10:25:28;;;;;;;10.85;1.73;;;7.20;83.40;;;;;;5072677;28;20024;-76
2023/01/16 10:28:19;;;;;;;8.25;2.10;;;7.20;81.30;;;;;;5072188;28;20024;-75
2023/01/16 10:30:57;;;;;;;11.38;2.05;;;7.20;80.60;;;;;;5072426;28;20152;-75
2023/01/16 10:33:31;;;;;;;5.72;1.90;;;7.30;79.40;;;;;;5073342;28;20086;-74
2023/01/16 10:36:00;;;;;;;7.07;1.83;;;7.30;81.00;;;;;;5071445;28;20029;-74
2023/01/16 10:41:00;;;;;;;11.20;2.47;;;7.30;74.60;;;;;;5072070;28;20030;-76
2023/01/16 10:49:26;;;;;;;6.03;1.63;;;7.20;82.70;;;;;;5072244;28;20043;-72
2023/01/16 10:51:52;;;;;;;6.53;1.75;;;7.30;78.00;;;;;;5071813;28;20026;-75
2023/01/16 10:54:17;;;;;;;13.35;2.55;;;7.40;77.00;;;;;;5072103;28;20032;-72
2023/01/16 10:56:43;;;;;;;6.97;1.33;;;7.50;68.40;;;;;;5072137;28;20052;-75
2023/01/16 10:59:12;;;;;;;6.43;1.75;;;7.50;69.00;;;;;;5072914;28;20021;-73
2023/01/16 11:01:41;;;;;;;7.18;2.22;;;7.60;70.60;;;;;;5072187;28;20432;-73
2023/01/16 11:04:10;;;;;;;6.75;1.90;;;7.60;68.30;;;;;;5071508;28;20339;-73
2023/01/16 11:06:37;;;;;;;8.45;1.98;;;7.70;61.80;;;;;;5070990;28;20040;-75
2023/01/16 11:09:13;;;;;;;6.18;1.50;;;7.70;61.40;;;;;;5071811;28;20094;-73
2023/01/16 11:20:29;;;;;;;8.95;2.70;;;8.00;52.70;;;;;;5071826;28;20401;-73
2023/01/16 11:22:58;;;;;;;10.63;2.67;;;8.00;51.00;;;;;;5071575;28;20523;-72
2023/01/16 11:25:24;;;;;;;9.82;2.00;;;8.00;53.50;;;;;;5070786;28;20068;-73
2023/01/16 11:27:51;;;;;;;9.57;2.22;;;8.00;55.50;;;;;;5071226;28;20031;-72
2023/01/16 11:30:26;;;;;;;11.77;2.30;;;7.90;53.70;;;;;;5071319;28;20031;-74
2023/01/16 11:32:55;;;;;;;11.35;2.80;;;7.90;60.30;;;;;;5074557;28;20021;-73
2023/01/16 11:35:32;;;;;;;9.05;2.05;;;7.80;56.90;;;;;;5074915;28;20482;-73
2023/01/16 11:38:00;;;;;;;11.68;2.15;;;7.80;60.10;;;;;;5075720;28;20052;-73
2023/01/16 11:40:27;;;;;;;8.18;2.20;;;7.80;64.10;;;;;;5075587;28;20020;-73
2023/01/16 11:46:02;;;;;;;10.20;2.25;;;7.90;55.50;;;;;;5074947;28;20036;-72
2023/01/16 11:48:48;;;;;;;12.90;2.80;;;8.00;53.40;;;;;;5075151;28;20029;-74
2023/01/16 11:51:22;;;;;;;5.55;1.70;;;7.90;51.20;;;;;;5074283;28;20513;-72
2023/01/16 11:53:49;;;;;;;11.65;2.63;;;7.90;54.00;;;;;;5074700;28;20311;-71
2023/01/16 11:56:43;;;;;;;8.65;2.20;;;7.80;56.90;;;;;;5074191;28;20039;-71
2023/01/16 11:59:29;;;;;;;9.23;2.30;;;7.90;56.70;;;;;;5075086;28;20387;-72
2023/01/16 12:02:16;;;;;;;7.43;2.20;;;7.80;55.90;;;;;;5074830;28;20028;-72
2023/01/16 12:08:21;;;;;;;10.02;3.40;;;7.70;56.00;;;;;;5075006;28;20409;-72
2023/01/16 12:10:47;;;;;;;10.93;1.85;;;7.70;58.20;;;;;;5074326;28;20025;-71
2023/01/16 12:16:03;;;;;;;6.35;2.08;;;7.70;55.90;;;;;;5071625;28;20028;-72
2023/01/16 12:18:50;;;;;;;10.13;1.95;;;7.70;50.70;;;;;;5074367;28;20478;-73
2023/01/16 12:21:59;;;;;;;9.65;1.90;;;7.70;54.10;;;;;;5075017;28;20099;-72
2023/01/16 12:24:48;;;;;;;12.27;2.30;;;7.80;48.70;;;;;;5051608;28;20099;-73
2023/01/16 12:27:39;;;;;;;8.38;2.55;;;7.90;49.10;;;;;;5074279;28;20032;-72
2023/01/16 12:30:25;;;;;;;7.50;2.03;;;7.90;49.10;;;;;;5074930;28;20104;-72
2023/01/16 12:33:28;;;;;;;6.07;1.52;;;8.00;42.80;;;;;;5073812;28;20039;-71
2023/01/16 12:36:14;;;;;;;8.63;1.85;;;8.00;44.60;;;;;;5073187;28;20034;-73
2023/01/16 12:38:57;;;;;;;5.22;1.60;;;8.00;37.90;;;;;;5074097;28;20021;-73
2023/01/16 12:44:28;;;;;;;11.05;2.22;;;7.80;40.20;;;;;;5077456;28;20023;-72
2023/01/16 12:47:24;;;;;;;3.78;1.67;;;7.80;41.20;;;;;;5075721;28;20128;-73
2023/01/16 12:50:20;;;;;;;9.75;1.85;;;7.70;44.40;;;;;;5068307;28;20033;-74
2023/01/16 12:53:17;;;;;;;8.82;1.85;;;7.70;48.20;;;;;;5065413;28;20045;-72
2023/01/16 12:55:52;;;;;;;5.75;1.67;;;7.70;44.20;;;;;;5041671;28;20044;-72
2023/01/16 12:58:21;;;;;;;5.22;1.67;;;7.60;47.30;;;;;;5073742;28;20017;-73
2023/01/16 13:01:03;;;;;;;9.48;3.53;;;7.60;53.20;;;;;;5073861;28;20489;-73
2023/01/16 13:03:39;;;;;;;8.70;1.90;;;7.60;53.80;;;;;;5073606;28;20048;-73
2023/01/16 13:06:10;;;;;;;7.38;2.00;;;7.60;48.30;;;;;;5072911;28;20042;-73
2023/01/16 13:08:43;;;;;;;10.40;1.70;;;7.50;45.80;;;;;;5073334;28;20032;-72
2023/01/16 13:14:06;;;;;;;7.73;1.83;;;7.50;45.60;;;;;;5074378;28;20056;-75
2023/01/16 13:16:39;;;;;;;5.47;1.45;;;7.60;44.20;;;;;;5073061;28;20029;-73
2023/01/16 13:19:12;;;;;;;9.68;1.95;;;7.50;45.40;;;;;;5073532;28;20504;-73
2023/01/16 13:22:10;;;;;;;6.28;1.65;;;7.50;42.40;;;;;;5073346;28;20025;-76
2023/01/16 13:24:54;;;;;;;8.48;1.88;;;7.50;45.50;;;;;;5061775;28;20043;-76
2023/01/16 13:27:27;;;;;;;8.23;2.28;;;7.50;45.10;;;;;;5074581;28;20516;-78
2023/01/16 13:30:02;;;;;;;6.45;1.60;;;7.50;45.60;;;;;;5079949;28;20027;-77
2023/01/16 13:32:40;;;;;;;8.23;1.77;;;7.50;39.70;;;;;;5076197;28;20114;-77
2023/01/16 13:35:13;;;;;;;8.68;1.50;;;7.50;38.10;;;;;;5074246;28;20032;-75
2023/01/16 13:37:57;;;;;;;3.80;1.60;;;7.40;39.80;;;;;;5073834;28;20482;-78
2023/01/16 13:40:39;;;;;;;8.02;2.00;;;7.40;41.80;;;;;;5074219;28;20032;-77
2023/01/16 13:45:54;;;;;;;8.50;2.55;;;7.30;45.70;;;;;;5072394;28;20054;-75
2023/01/16 13:48:26;;;;;;;7.43;1.90;;;7.30;48.10;;;;;;5071301;28;20040;-74
2023/01/16 13:51:00;;;;;;;10.00;1.80;;;7.30;48.20;;;;;;5074714;28;20027;-77
2023/01/16 13:53:28;;;;;;;;;;;7.30;46.30;;;;;;5073549;28;20106;-75
2023/01/16 13:56:26;;;;;;;7.50;1.70;;;7.30;50.40;;;;;;5077148;28;19958;-78
2023/01/16 13:59:05;;;;;;;12.02;2.03;;;7.30;48.90;;;;;;5038487;28;20119;-73
2023/01/16 14:01:55;;;;;;;5.47;1.83;;;7.30;49.40;;;;;;5073106;28;20027;-72
2023/01/16 14:04:21;;;;;;;12.27;2.00;;;7.20;50.80;;;;;;5072663;28;20028;-72
2023/01/16 14:09:03;;;;;;;6.93;1.48;;;7.20;51.70;;;;;;5072143;28;20385;-72
2023/01/16 14:10:07;;;;;;;9.05;2.08;;;7.20;50.80;;;;;;5072293;28;20116;-73
2023/01/16 14:12:54;;;;;;;6.50;1.90;;;7.20;50.60;;;;;;5072330;28;20025;-73
2023/01/16 14:18:20;;;;;;;7.45;1.88;;;7.10;55.60;;;;;;5072873;28;20035;-72
2023/01/16 14:20:50;;;;;;;6.20;1.88;;;7.10;57.70;;;;;;5072683;28;20430;-72
2023/01/16 14:26:08;;;;;;;7.13;1.75;;;7.00;57.70;;;;;;5071971;28;20028;-73
2023/01/16 14:28:34;;;;;;;7.75;2.45;;;7.10;55.20;;;;;;5072027;28;20036;-73